< < Back
Terminal Aerodrome Forecast


Current Version              Previous Versions:   1  2  3  4  5  6  7  8  9  

Terminal Aerodrome Forecast

277
FTUS44 KHUN 211623 AAA
TAFHSV
TAF AMD
KHSV 211623Z 2116/2212 27012G18KT P6SM FEW030
     FM220000 VRB03KT P6SM SKC=



Latest METAR

388
SAUS80 KWBC 220400 RRB
MTRHSV
METAR KHSV 220353Z 00000KT 10SM CLR 26/23 A3011 RMK AO2 SLP186
T02610233


USA.gov is the U.S. government's official web portal to all federal, state and local government web resources and services.